sensor_id;sensor_type;location;lat;lon;timestamp;P1;durP1;ratioP1;P2;durP2;ratioP2
68509;SDS011;55512;50.102;19.958;2022-08-19T00:01:26;13.60;;;10.70;;
68509;SDS011;55512;50.102;19.958;2022-08-19T00:03:55;15.20;;;10.70;;
68509;SDS011;55512;50.102;19.958;2022-08-19T00:06:26;14.20;;;11.70;;
68509;SDS011;55512;50.102;19.958;2022-08-19T00:08:54;14.50;;;10.90;;
68509;SDS011;55512;50.102;19.958;2022-08-19T00:11:20;16.40;;;11.50;;
68509;SDS011;55512;50.102;19.958;2022-08-19T00:13:47;12.50;;;9.90;;
68509;SDS011;55512;50.102;19.958;2022-08-19T00:16:18;12.10;;;9.40;;
68509;SDS011;55512;50.102;19.958;2022-08-19T00:18:45;12.20;;;8.80;;
68509;SDS011;55512;50.102;19.958;2022-08-19T00:21:10;13.70;;;10.70;;
68509;SDS011;55512;50.102;19.958;2022-08-19T00:23:36;13.90;;;10.40;;
68509;SDS011;55512;50.102;19.958;2022-08-19T00:26:06;15.70;;;10.50;;
68509;SDS011;55512;50.102;19.958;2022-08-19T00:28:33;15.00;;;10.80;;
68509;SDS011;55512;50.102;19.958;2022-08-19T00:31:02;13.60;;;11.30;;
68509;SDS011;55512;50.102;19.958;2022-08-19T00:33:29;15.60;;;11.30;;
68509;SDS011;55512;50.102;19.958;2022-08-19T00:36:04;13.10;;;10.90;;
68509;SDS011;55512;50.102;19.958;2022-08-19T00:38:33;13.80;;;10.70;;
68509;SDS011;55512;50.102;19.958;2022-08-19T00:41:00;15.20;;;10.60;;
68509;SDS011;55512;50.102;19.958;2022-08-19T00:43:26;14.10;;;12.00;;
68509;SDS011;55512;50.102;19.958;2022-08-19T00:45:53;15.60;;;12.10;;
68509;SDS011;55512;50.102;19.958;2022-08-19T00:48:20;14.40;;;10.70;;
68509;SDS011;55512;50.102;19.958;2022-08-19T00:50:49;15.20;;;11.30;;
68509;SDS011;55512;50.102;19.958;2022-08-19T00:53:20;15.90;;;11.70;;
68509;SDS011;55512;50.102;19.958;2022-08-19T00:55:51;16.80;;;12.70;;
68509;SDS011;55512;50.102;19.958;2022-08-19T00:58:22;16.70;;;11.60;;
68509;SDS011;55512;50.102;19.958;2022-08-19T01:00:52;14.60;;;11.30;;
68509;SDS011;55512;50.102;19.958;2022-08-19T01:03:20;15.90;;;11.60;;
68509;SDS011;55512;50.102;19.958;2022-08-19T01:05:50;14.10;;;11.60;;
68509;SDS011;55512;50.102;19.958;2022-08-19T01:08:19;14.10;;;11.20;;
68509;SDS011;55512;50.102;19.958;2022-08-19T01:10:47;15.90;;;11.80;;
68509;SDS011;55512;50.102;19.958;2022-08-19T01:13:17;14.40;;;11.10;;
68509;SDS011;55512;50.102;19.958;2022-08-19T01:15:49;14.30;;;10.60;;
68509;SDS011;55512;50.102;19.958;2022-08-19T01:18:19;13.90;;;11.00;;
68509;SDS011;55512;50.102;19.958;2022-08-19T01:20:46;16.40;;;10.40;;
68509;SDS011;55512;50.102;19.958;2022-08-19T01:23:13;14.70;;;11.50;;
68509;SDS011;55512;50.102;19.958;2022-08-19T01:25:47;15.30;;;10.60;;
68509;SDS011;55512;50.102;19.958;2022-08-19T01:28:21;14.00;;;10.60;;
68509;SDS011;55512;50.102;19.958;2022-08-19T01:30:54;13.00;;;9.20;;
68509;SDS011;55512;50.102;19.958;2022-08-19T01:33:21;12.30;;;8.90;;
68509;SDS011;55512;50.102;19.958;2022-08-19T01:35:47;12.30;;;9.10;;
68509;SDS011;55512;50.102;19.958;2022-08-19T01:38:22;13.30;;;9.70;;
68509;SDS011;55512;50.102;19.958;2022-08-19T01:40:51;14.10;;;10.40;;
68509;SDS011;55512;50.102;19.958;2022-08-19T01:43:17;12.80;;;10.20;;
68509;SDS011;55512;50.102;19.958;2022-08-19T01:45:45;12.70;;;9.90;;
68509;SDS011;55512;50.102;19.958;2022-08-19T01:48:11;13.40;;;10.20;;
68509;SDS011;55512;50.102;19.958;2022-08-19T01:50:37;15.90;;;10.80;;
68509;SDS011;55512;50.102;19.958;2022-08-19T01:53:06;14.70;;;10.40;;
68509;SDS011;55512;50.102;19.958;2022-08-19T01:55:38;13.50;;;9.70;;
68509;SDS011;55512;50.102;19.958;2022-08-19T01:58:11;13.70;;;9.90;;
68509;SDS011;55512;50.102;19.958;2022-08-19T02:00:41;13.60;;;10.60;;
68509;SDS011;55512;50.102;19.958;2022-08-19T02:03:07;14.40;;;9.60;;
68509;SDS011;55512;50.102;19.958;2022-08-19T02:05:34;15.70;;;11.30;;
68509;SDS011;55512;50.102;19.958;2022-08-19T02:08:00;13.30;;;10.50;;
68509;SDS011;55512;50.102;19.958;2022-08-19T02:10:25;13.40;;;10.90;;
68509;SDS011;55512;50.102;19.958;2022-08-19T02:12:51;14.70;;;10.70;;
68509;SDS011;55512;50.102;19.958;2022-08-19T02:15:19;15.20;;;11.00;;
68509;SDS011;55512;50.102;19.958;2022-08-19T02:17:46;13.80;;;10.90;;
68509;SDS011;55512;50.102;19.958;2022-08-19T02:20:12;14.00;;;10.10;;
68509;SDS011;55512;50.102;19.958;2022-08-19T02:22:40;12.70;;;9.70;;
68509;SDS011;55512;50.102;19.958;2022-08-19T02:25:11;11.60;;;9.00;;
68509;SDS011;55512;50.102;19.958;2022-08-19T02:27:39;12.10;;;9.30;;
68509;SDS011;55512;50.102;19.958;2022-08-19T02:30:07;12.20;;;9.70;;
68509;SDS011;55512;50.102;19.958;2022-08-19T02:32:40;13.30;;;10.30;;
68509;SDS011;55512;50.102;19.958;2022-08-19T02:35:07;14.30;;;10.20;;
68509;SDS011;55512;50.102;19.958;2022-08-19T02:37:34;14.50;;;10.60;;
68509;SDS011;55512;50.102;19.958;2022-08-19T02:40:18;13.60;;;10.20;;
68509;SDS011;55512;50.102;19.958;2022-08-19T02:42:44;12.50;;;10.40;;
68509;SDS011;55512;50.102;19.958;2022-08-19T02:45:12;15.50;;;9.90;;
68509;SDS011;55512;50.102;19.958;2022-08-19T02:47:39;14.50;;;10.50;;
68509;SDS011;55512;50.102;19.958;2022-08-19T02:50:06;14.90;;;10.90;;
68509;SDS011;55512;50.102;19.958;2022-08-19T02:52:33;14.50;;;10.30;;
68509;SDS011;55512;50.102;19.958;2022-08-19T02:54:59;12.40;;;9.40;;
68509;SDS011;55512;50.102;19.958;2022-08-19T02:57:26;12.50;;;9.10;;
68509;SDS011;55512;50.102;19.958;2022-08-19T02:59:52;14.30;;;9.80;;
68509;SDS011;55512;50.102;19.958;2022-08-19T03:02:19;14.40;;;10.70;;
68509;SDS011;55512;50.102;19.958;2022-08-19T03:04:45;13.50;;;9.60;;
68509;SDS011;55512;50.102;19.958;2022-08-19T03:07:15;13.90;;;10.10;;
68509;SDS011;55512;50.102;19.958;2022-08-19T03:09:42;16.70;;;11.40;;
68509;SDS011;55512;50.102;19.958;2022-08-19T03:12:08;14.40;;;10.40;;
68509;SDS011;55512;50.102;19.958;2022-08-19T03:14:34;12.50;;;9.80;;
68509;SDS011;55512;50.102;19.958;2022-08-19T03:17:00;14.70;;;10.30;;
68509;SDS011;55512;50.102;19.958;2022-08-19T03:19:26;13.60;;;10.10;;
68509;SDS011;55512;50.102;19.958;2022-08-19T03:21:53;11.90;;;8.70;;
68509;SDS011;55512;50.102;19.958;2022-08-19T03:24:19;11.90;;;8.70;;
68509;SDS011;55512;50.102;19.958;2022-08-19T03:26:51;19.90;;;11.40;;
68509;SDS011;55512;50.102;19.958;2022-08-19T03:29:22;15.50;;;10.70;;
68509;SDS011;55512;50.102;19.958;2022-08-19T03:31:49;16.00;;;9.90;;
68509;SDS011;55512;50.102;19.958;2022-08-19T03:34:25;14.10;;;10.50;;
68509;SDS011;55512;50.102;19.958;2022-08-19T03:36:58;13.60;;;9.90;;
68509;SDS011;55512;50.102;19.958;2022-08-19T03:39:28;14.40;;;10.90;;
68509;SDS011;55512;50.102;19.958;2022-08-19T03:41:55;14.10;;;9.70;;
68509;SDS011;55512;50.102;19.958;2022-08-19T03:44:25;15.60;;;10.30;;
68509;SDS011;55512;50.102;19.958;2022-08-19T03:46:52;13.10;;;9.70;;
68509;SDS011;55512;50.102;19.958;2022-08-19T03:49:22;15.90;;;10.50;;
68509;SDS011;55512;50.102;19.958;2022-08-19T03:51:49;11.50;;;9.00;;
68509;SDS011;55512;50.102;19.958;2022-08-19T03:54:18;11.00;;;8.70;;
68509;SDS011;55512;50.102;19.958;2022-08-19T03:56:47;14.60;;;8.90;;
68509;SDS011;55512;50.102;19.958;2022-08-19T03:59:35;15.00;;;10.30;;
68509;SDS011;55512;50.102;19.958;2022-08-19T04:02:06;15.40;;;9.50;;
68509;SDS011;55512;50.102;19.958;2022-08-19T04:04:35;13.20;;;9.60;;
68509;SDS011;55512;50.102;19.958;2022-08-19T04:07:02;14.40;;;10.50;;
68509;SDS011;55512;50.102;19.958;2022-08-19T04:09:28;13.90;;;10.30;;
68509;SDS011;55512;50.102;19.958;2022-08-19T04:11:56;14.00;;;9.90;;
68509;SDS011;55512;50.102;19.958;2022-08-19T04:14:26;15.70;;;9.90;;
68509;SDS011;55512;50.102;19.958;2022-08-19T04:16:56;14.20;;;10.70;;
68509;SDS011;55512;50.102;19.958;2022-08-19T04:19:22;15.40;;;10.70;;
68509;SDS011;55512;50.102;19.958;2022-08-19T04:21:52;13.30;;;8.90;;
68509;SDS011;55512;50.102;19.958;2022-08-19T04:24:20;13.30;;;9.30;;
68509;SDS011;55512;50.102;19.958;2022-08-19T04:26:47;13.20;;;9.60;;
68509;SDS011;55512;50.102;19.958;2022-08-19T04:29:18;14.10;;;10.20;;
68509;SDS011;55512;50.102;19.958;2022-08-19T04:31:47;17.10;;;9.80;;
68509;SDS011;55512;50.102;19.958;2022-08-19T04:34:16;15.90;;;11.00;;
68509;SDS011;55512;50.102;19.958;2022-08-19T04:36:48;14.60;;;10.90;;
68509;SDS011;55512;50.102;19.958;2022-08-19T04:39:20;16.60;;;11.00;;
68509;SDS011;55512;50.102;19.958;2022-08-19T04:41:47;16.70;;;11.40;;
68509;SDS011;55512;50.102;19.958;2022-08-19T04:44:32;15.50;;;11.30;;
68509;SDS011;55512;50.102;19.958;2022-08-19T04:47:00;14.50;;;11.20;;
68509;SDS011;55512;50.102;19.958;2022-08-19T04:49:26;14.50;;;11.00;;
68509;SDS011;55512;50.102;19.958;2022-08-19T04:51:53;12.60;;;9.50;;
68509;SDS011;55512;50.102;19.958;2022-08-19T04:54:21;14.80;;;9.30;;
68509;SDS011;55512;50.102;19.958;2022-08-19T04:56:53;12.30;;;9.60;;
68509;SDS011;55512;50.102;19.958;2022-08-19T04:59:19;14.40;;;10.00;;
68509;SDS011;55512;50.102;19.958;2022-08-19T05:01:46;13.40;;;10.00;;
68509;SDS011;55512;50.102;19.958;2022-08-19T05:04:19;16.90;;;11.40;;
68509;SDS011;55512;50.102;19.958;2022-08-19T05:06:47;15.30;;;10.90;;
68509;SDS011;55512;50.102;19.958;2022-08-19T05:09:15;19.80;;;11.50;;
68509;SDS011;55512;50.102;19.958;2022-08-19T05:11:42;17.90;;;11.80;;
68509;SDS011;55512;50.102;19.958;2022-08-19T05:14:09;13.60;;;10.80;;
68509;SDS011;55512;50.102;19.958;2022-08-19T05:16:38;16.30;;;11.20;;
68509;SDS011;55512;50.102;19.958;2022-08-19T05:19:04;13.90;;;9.20;;
68509;SDS011;55512;50.102;19.958;2022-08-19T05:21:48;14.10;;;9.60;;
68509;SDS011;55512;50.102;19.958;2022-08-19T05:24:33;14.30;;;9.90;;
68509;SDS011;55512;50.102;19.958;2022-08-19T05:27:00;12.80;;;9.90;;
68509;SDS011;55512;50.102;19.958;2022-08-19T05:29:29;13.40;;;10.40;;
68509;SDS011;55512;50.102;19.958;2022-08-19T05:31:57;15.30;;;10.60;;
68509;SDS011;55512;50.102;19.958;2022-08-19T05:34:24;18.30;;;11.10;;
68509;SDS011;55512;50.102;19.958;2022-08-19T05:36:54;14.50;;;10.70;;
68509;SDS011;55512;50.102;19.958;2022-08-19T05:39:27;17.40;;;11.80;;
68509;SDS011;55512;50.102;19.958;2022-08-19T05:42:09;14.90;;;10.80;;
68509;SDS011;55512;50.102;19.958;2022-08-19T05:44:38;14.50;;;9.10;;
68509;SDS011;55512;50.102;19.958;2022-08-19T05:47:11;12.10;;;8.80;;
68509;SDS011;55512;50.102;19.958;2022-08-19T05:49:38;14.20;;;9.60;;
68509;SDS011;55512;50.102;19.958;2022-08-19T05:52:05;12.30;;;9.80;;
68509;SDS011;55512;50.102;19.958;2022-08-19T05:54:33;14.20;;;10.50;;
68509;SDS011;55512;50.102;19.958;2022-08-19T05:57:01;14.60;;;9.80;;
68509;SDS011;55512;50.102;19.958;2022-08-19T05:59:27;14.40;;;10.40;;
68509;SDS011;55512;50.102;19.958;2022-08-19T06:01:53;16.10;;;10.80;;
68509;SDS011;55512;50.102;19.958;2022-08-19T06:04:21;14.40;;;10.40;;
68509;SDS011;55512;50.102;19.958;2022-08-19T06:06:49;14.40;;;10.00;;
68509;SDS011;55512;50.102;19.958;2022-08-19T06:09:16;13.50;;;9.10;;
68509;SDS011;55512;50.102;19.958;2022-08-19T06:11:51;13.00;;;8.80;;
68509;SDS011;55512;50.102;19.958;2022-08-19T06:14:28;12.70;;;9.70;;
68509;SDS011;55512;50.102;19.958;2022-08-19T06:16:57;14.00;;;10.10;;
68509;SDS011;55512;50.102;19.958;2022-08-19T06:19:25;16.70;;;10.50;;
68509;SDS011;55512;50.102;19.958;2022-08-19T06:21:52;15.40;;;10.10;;
68509;SDS011;55512;50.102;19.958;2022-08-19T06:24:23;17.30;;;11.50;;
68509;SDS011;55512;50.102;19.958;2022-08-19T06:26:52;16.80;;;10.50;;
68509;SDS011;55512;50.102;19.958;2022-08-19T06:29:21;15.80;;;10.00;;
68509;SDS011;55512;50.102;19.958;2022-08-19T06:31:51;15.00;;;9.80;;
68509;SDS011;55512;50.102;19.958;2022-08-19T06:34:19;13.10;;;9.50;;
68509;SDS011;55512;50.102;19.958;2022-08-19T06:36:48;16.20;;;11.40;;
68509;SDS011;55512;50.102;19.958;2022-08-19T06:39:22;14.50;;;8.50;;
68509;SDS011;55512;50.102;19.958;2022-08-19T06:41:52;13.40;;;8.60;;
68509;SDS011;55512;50.102;19.958;2022-08-19T06:44:23;12.90;;;9.00;;
68509;SDS011;55512;50.102;19.958;2022-08-19T06:46:51;15.90;;;10.80;;
68509;SDS011;55512;50.102;19.958;2022-08-19T06:49:18;19.50;;;9.40;;
68509;SDS011;55512;50.102;19.958;2022-08-19T06:51:46;19.40;;;10.60;;
68509;SDS011;55512;50.102;19.958;2022-08-19T06:54:13;14.60;;;10.00;;
68509;SDS011;55512;50.102;19.958;2022-08-19T06:56:41;13.80;;;10.10;;
68509;SDS011;55512;50.102;19.958;2022-08-19T06:59:11;16.80;;;9.90;;
68509;SDS011;55512;50.102;19.958;2022-08-19T07:01:43;16.20;;;10.20;;
68509;SDS011;55512;50.102;19.958;2022-08-19T07:04:13;16.00;;;10.20;;
68509;SDS011;55512;50.102;19.958;2022-08-19T07:06:41;11.40;;;8.80;;
68509;SDS011;55512;50.102;19.958;2022-08-19T07:09:09;13.20;;;9.70;;
68509;SDS011;55512;50.102;19.958;2022-08-19T07:11:36;15.20;;;11.00;;
68509;SDS011;55512;50.102;19.958;2022-08-19T07:14:02;18.30;;;11.40;;
68509;SDS011;55512;50.102;19.958;2022-08-19T07:16:28;13.00;;;10.50;;
68509;SDS011;55512;50.102;19.958;2022-08-19T07:18:54;15.30;;;10.20;;
68509;SDS011;55512;50.102;19.958;2022-08-19T07:21:26;15.10;;;10.30;;
68509;SDS011;55512;50.102;19.958;2022-08-19T07:23:54;14.30;;;10.20;;
68509;SDS011;55512;50.102;19.958;2022-08-19T07:26:25;13.90;;;11.10;;
68509;SDS011;55512;50.102;19.958;2022-08-19T07:28:54;13.20;;;10.40;;
68509;SDS011;55512;50.102;19.958;2022-08-19T07:31:23;16.60;;;11.20;;
68509;SDS011;55512;50.102;19.958;2022-08-19T07:33:52;15.40;;;10.60;;
68509;SDS011;55512;50.102;19.958;2022-08-19T07:36:25;14.70;;;10.50;;
68509;SDS011;55512;50.102;19.958;2022-08-19T07:38:58;15.00;;;10.90;;
68509;SDS011;55512;50.102;19.958;2022-08-19T07:41:27;17.80;;;10.80;;
68509;SDS011;55512;50.102;19.958;2022-08-19T07:43:57;17.60;;;10.60;;
68509;SDS011;55512;50.102;19.958;2022-08-19T07:46:30;15.20;;;10.60;;
68509;SDS011;55512;50.102;19.958;2022-08-19T07:48:57;18.20;;;11.10;;
68509;SDS011;55512;50.102;19.958;2022-08-19T07:51:23;13.80;;;10.60;;
68509;SDS011;55512;50.102;19.958;2022-08-19T07:53:50;15.50;;;10.60;;
68509;SDS011;55512;50.102;19.958;2022-08-19T07:56:17;14.50;;;10.40;;
68509;SDS011;55512;50.102;19.958;2022-08-19T07:58:46;15.70;;;10.90;;
68509;SDS011;55512;50.102;19.958;2022-08-19T08:01:17;15.10;;;10.70;;
68509;SDS011;55512;50.102;19.958;2022-08-19T08:03:44;13.50;;;9.70;;
68509;SDS011;55512;50.102;19.958;2022-08-19T08:06:29;14.70;;;10.20;;
68509;SDS011;55512;50.102;19.958;2022-08-19T08:09:16;13.40;;;10.50;;
68509;SDS011;55512;50.102;19.958;2022-08-19T08:11:51;14.10;;;10.40;;
68509;SDS011;55512;50.102;19.958;2022-08-19T08:14:24;15.30;;;10.30;;
68509;SDS011;55512;50.102;19.958;2022-08-19T08:16:53;14.50;;;10.60;;
68509;SDS011;55512;50.102;19.958;2022-08-19T08:19:21;16.80;;;10.60;;
68509;SDS011;55512;50.102;19.958;2022-08-19T08:21:49;15.80;;;10.90;;
68509;SDS011;55512;50.102;19.958;2022-08-19T08:24:16;14.70;;;10.60;;
68509;SDS011;55512;50.102;19.958;2022-08-19T08:26:43;14.80;;;11.50;;
68509;SDS011;55512;50.102;19.958;2022-08-19T08:29:10;16.60;;;11.10;;
68509;SDS011;55512;50.102;19.958;2022-08-19T08:31:39;16.60;;;11.40;;
68509;SDS011;55512;50.102;19.958;2022-08-19T08:34:06;15.60;;;9.80;;
68509;SDS011;55512;50.102;19.958;2022-08-19T08:36:37;15.20;;;11.20;;
68509;SDS011;55512;50.102;19.958;2022-08-19T08:39:19;14.70;;;11.50;;
68509;SDS011;55512;50.102;19.958;2022-08-19T08:42:04;15.90;;;11.50;;
68509;SDS011;55512;50.102;19.958;2022-08-19T08:47:09;16.20;;;11.00;;
68509;SDS011;55512;50.102;19.958;2022-08-19T08:49:56;17.80;;;10.20;;
68509;SDS011;55512;50.102;19.958;2022-08-19T08:52:32;13.10;;;10.50;;
68509;SDS011;55512;50.102;19.958;2022-08-19T08:55:08;15.20;;;10.30;;
68509;SDS011;55512;50.102;19.958;2022-08-19T08:57:52;15.10;;;10.00;;
68509;SDS011;55512;50.102;19.958;2022-08-19T09:00:38;14.00;;;9.60;;
68509;SDS011;55512;50.102;19.958;2022-08-19T09:03:19;15.70;;;11.50;;
68509;SDS011;55512;50.102;19.958;2022-08-19T09:06:03;16.80;;;10.80;;
68509;SDS011;55512;50.102;19.958;2022-08-19T09:15:04;14.80;;;10.60;;
68509;SDS011;55512;50.102;19.958;2022-08-19T09:17:29;15.80;;;10.90;;
68509;SDS011;55512;50.102;19.958;2022-08-19T09:22:41;15.60;;;10.60;;
68509;SDS011;55512;50.102;19.958;2022-08-19T09:25:13;16.00;;;11.10;;
68509;SDS011;55512;50.102;19.958;2022-08-19T09:27:42;15.30;;;10.70;;
68509;SDS011;55512;50.102;19.958;2022-08-19T09:30:14;14.20;;;9.60;;
68509;SDS011;55512;50.102;19.958;2022-08-19T09:32:44;14.90;;;10.40;;
68509;SDS011;55512;50.102;19.958;2022-08-19T09:35:11;16.30;;;11.40;;
68509;SDS011;55512;50.102;19.958;2022-08-19T09:37:39;16.20;;;11.60;;
68509;SDS011;55512;50.102;19.958;2022-08-19T09:40:08;16.20;;;11.20;;
68509;SDS011;55512;50.102;19.958;2022-08-19T09:42:34;18.70;;;12.30;;
68509;SDS011;55512;50.102;19.958;2022-08-19T09:45:00;17.20;;;11.40;;
68509;SDS011;55512;50.102;19.958;2022-08-19T09:47:26;17.30;;;11.70;;
68509;SDS011;55512;50.102;19.958;2022-08-19T09:49:51;17.40;;;10.90;;
68509;SDS011;55512;50.102;19.958;2022-08-19T09:52:17;15.30;;;11.70;;
68509;SDS011;55512;50.102;19.958;2022-08-19T09:54:43;18.30;;;14.70;;
68509;SDS011;55512;50.102;19.958;2022-08-19T09:57:08;17.00;;;12.10;;
68509;SDS011;55512;50.102;19.958;2022-08-19T09:59:34;15.20;;;11.70;;
68509;SDS011;55512;50.102;19.958;2022-08-19T10:02:00;16.50;;;11.60;;
68509;SDS011;55512;50.102;19.958;2022-08-19T10:04:26;14.90;;;11.40;;
68509;SDS011;55512;50.102;19.958;2022-08-19T10:07:11;16.40;;;10.80;;
68509;SDS011;55512;50.102;19.958;2022-08-19T10:09:37;13.90;;;10.30;;
68509;SDS011;55512;50.102;19.958;2022-08-19T10:12:04;15.40;;;10.50;;
68509;SDS011;55512;50.102;19.958;2022-08-19T10:14:30;16.20;;;10.80;;
68509;SDS011;55512;50.102;19.958;2022-08-19T10:16:56;16.20;;;10.70;;
68509;SDS011;55512;50.102;19.958;2022-08-19T10:19:22;14.20;;;9.30;;
68509;SDS011;55512;50.102;19.958;2022-08-19T10:21:48;18.90;;;10.90;;
68509;SDS011;55512;50.102;19.958;2022-08-19T10:24:14;16.50;;;10.70;;
68509;SDS011;55512;50.102;19.958;2022-08-19T10:26:40;17.70;;;10.70;;
68509;SDS011;55512;50.102;19.958;2022-08-19T10:29:12;12.90;;;11.20;;
68509;SDS011;55512;50.102;19.958;2022-08-19T10:31:41;17.50;;;10.70;;
68509;SDS011;55512;50.102;19.958;2022-08-19T10:34:07;17.50;;;11.30;;
68509;SDS011;55512;50.102;19.958;2022-08-19T10:36:35;15.00;;;10.60;;
68509;SDS011;55512;50.102;19.958;2022-08-19T10:39:07;14.20;;;10.40;;
68509;SDS011;55512;50.102;19.958;2022-08-19T10:41:36;13.80;;;9.70;;
68509;SDS011;55512;50.102;19.958;2022-08-19T10:44:08;13.60;;;9.60;;
68509;SDS011;55512;50.102;19.958;2022-08-19T10:46:39;12.50;;;9.80;;
68509;SDS011;55512;50.102;19.958;2022-08-19T10:49:09;11.30;;;8.90;;
68509;SDS011;55512;50.102;19.958;2022-08-19T10:51:37;13.40;;;9.60;;
68509;SDS011;55512;50.102;19.958;2022-08-19T10:54:23;11.20;;;9.00;;
68509;SDS011;55512;50.102;19.958;2022-08-19T10:57:09;12.00;;;8.80;;
68509;SDS011;55512;50.102;19.958;2022-08-19T10:59:34;12.50;;;8.40;;
68509;SDS011;55512;50.102;19.958;2022-08-19T11:02:02;11.00;;;8.20;;
68509;SDS011;55512;50.102;19.958;2022-08-19T11:04:29;11.30;;;8.60;;
68509;SDS011;55512;50.102;19.958;2022-08-19T11:06:55;10.40;;;8.60;;
68509;SDS011;55512;50.102;19.958;2022-08-19T11:09:23;10.50;;;8.20;;
68509;SDS011;55512;50.102;19.958;2022-08-19T11:11:52;12.90;;;8.60;;
68509;SDS011;55512;50.102;19.958;2022-08-19T11:14:20;13.60;;;8.50;;
68509;SDS011;55512;50.102;19.958;2022-08-19T11:16:49;11.10;;;8.60;;
68509;SDS011;55512;50.102;19.958;2022-08-19T11:19:16;13.20;;;8.90;;
68509;SDS011;55512;50.102;19.958;2022-08-19T11:21:46;11.50;;;8.50;;
68509;SDS011;55512;50.102;19.958;2022-08-19T11:24:18;11.40;;;8.80;;
68509;SDS011;55512;50.102;19.958;2022-08-19T11:26:48;11.30;;;8.70;;
68509;SDS011;55512;50.102;19.958;2022-08-19T11:29:16;13.20;;;8.80;;
68509;SDS011;55512;50.102;19.958;2022-08-19T11:31:45;12.60;;;9.20;;
68509;SDS011;55512;50.102;19.958;2022-08-19T11:34:16;9.80;;;8.40;;
68509;SDS011;55512;50.102;19.958;2022-08-19T11:36:45;11.60;;;8.70;;
68509;SDS011;55512;50.102;19.958;2022-08-19T11:39:14;45.00;;;13.20;;
68509;SDS011;55512;50.102;19.958;2022-08-19T11:41:41;15.70;;;9.50;;
68509;SDS011;55512;50.102;19.958;2022-08-19T11:44:08;21.20;;;10.40;;
68509;SDS011;55512;50.102;19.958;2022-08-19T11:46:36;14.00;;;8.70;;
68509;SDS011;55512;50.102;19.958;2022-08-19T11:49:04;10.50;;;8.10;;
68509;SDS011;55512;50.102;19.958;2022-08-19T11:51:34;11.20;;;8.30;;
68509;SDS011;55512;50.102;19.958;2022-08-19T11:54:00;16.60;;;9.40;;
68509;SDS011;55512;50.102;19.958;2022-08-19T11:56:27;12.50;;;8.40;;
68509;SDS011;55512;50.102;19.958;2022-08-19T11:58:54;46.20;;;11.90;;
68509;SDS011;55512;50.102;19.958;2022-08-19T12:01:23;15.50;;;8.60;;
68509;SDS011;55512;50.102;19.958;2022-08-19T12:03:52;11.50;;;8.20;;
68509;SDS011;55512;50.102;19.958;2022-08-19T12:06:25;11.40;;;8.00;;
68509;SDS011;55512;50.102;19.958;2022-08-19T12:08:55;11.60;;;8.30;;
68509;SDS011;55512;50.102;19.958;2022-08-19T12:11:22;9.00;;;7.50;;
68509;SDS011;55512;50.102;19.958;2022-08-19T12:13:48;11.60;;;8.70;;
68509;SDS011;55512;50.102;19.958;2022-08-19T12:16:19;11.20;;;8.50;;
68509;SDS011;55512;50.102;19.958;2022-08-19T12:18:48;14.00;;;8.60;;
68509;SDS011;55512;50.102;19.958;2022-08-19T12:21:18;11.30;;;8.10;;
68509;SDS011;55512;50.102;19.958;2022-08-19T12:23:47;11.20;;;8.30;;
68509;SDS011;55512;50.102;19.958;2022-08-19T12:26:15;12.80;;;8.10;;
68509;SDS011;55512;50.102;19.958;2022-08-19T12:28:41;11.70;;;8.00;;
68509;SDS011;55512;50.102;19.958;2022-08-19T12:31:07;10.80;;;8.00;;
68509;SDS011;55512;50.102;19.958;2022-08-19T12:33:37;11.60;;;8.00;;
68509;SDS011;55512;50.102;19.958;2022-08-19T12:36:06;10.00;;;8.20;;
68509;SDS011;55512;50.102;19.958;2022-08-19T12:38:33;10.90;;;7.70;;
68509;SDS011;55512;50.102;19.958;2022-08-19T12:41:00;12.50;;;8.10;;
68509;SDS011;55512;50.102;19.958;2022-08-19T12:43:26;12.40;;;8.40;;
68509;SDS011;55512;50.102;19.958;2022-08-19T12:45:52;12.60;;;8.70;;
68509;SDS011;55512;50.102;19.958;2022-08-19T12:48:18;16.90;;;8.20;;
68509;SDS011;55512;50.102;19.958;2022-08-19T12:50:44;9.40;;;7.40;;
68509;SDS011;55512;50.102;19.958;2022-08-19T12:53:11;12.40;;;7.70;;
68509;SDS011;55512;50.102;19.958;2022-08-19T12:55:37;13.50;;;7.50;;
68509;SDS011;55512;50.102;19.958;2022-08-19T12:58:03;9.90;;;7.00;;
68509;SDS011;55512;50.102;19.958;2022-08-19T13:00:29;12.40;;;7.80;;
68509;SDS011;55512;50.102;19.958;2022-08-19T13:02:58;10.00;;;7.00;;
68509;SDS011;55512;50.102;19.958;2022-08-19T13:05:27;11.30;;;7.00;;
68509;SDS011;55512;50.102;19.958;2022-08-19T13:07:57;17.60;;;8.60;;
68509;SDS011;55512;50.102;19.958;2022-08-19T13:10:30;10.10;;;7.40;;
68509;SDS011;55512;50.102;19.958;2022-08-19T13:13:02;15.10;;;8.10;;
68509;SDS011;55512;50.102;19.958;2022-08-19T13:15:33;10.40;;;7.60;;
68509;SDS011;55512;50.102;19.958;2022-08-19T13:18:00;12.10;;;8.70;;
68509;SDS011;55512;50.102;19.958;2022-08-19T13:20:26;12.50;;;7.90;;
68509;SDS011;55512;50.102;19.958;2022-08-19T13:22:54;10.70;;;7.60;;
68509;SDS011;55512;50.102;19.958;2022-08-19T13:25:20;11.20;;;7.50;;
68509;SDS011;55512;50.102;19.958;2022-08-19T13:27:48;13.10;;;7.60;;
68509;SDS011;55512;50.102;19.958;2022-08-19T13:30:16;13.00;;;8.00;;
68509;SDS011;55512;50.102;19.958;2022-08-19T13:33:02;11.50;;;8.10;;
68509;SDS011;55512;50.102;19.958;2022-08-19T13:38:18;11.30;;;7.60;;
68509;SDS011;55512;50.102;19.958;2022-08-19T13:40:46;11.10;;;7.90;;
68509;SDS011;55512;50.102;19.958;2022-08-19T13:43:14;10.50;;;7.20;;
68509;SDS011;55512;50.102;19.958;2022-08-19T13:45:40;8.70;;;6.80;;
68509;SDS011;55512;50.102;19.958;2022-08-19T13:48:06;11.90;;;6.80;;
68509;SDS011;55512;50.102;19.958;2022-08-19T13:50:37;12.00;;;6.70;;
68509;SDS011;55512;50.102;19.958;2022-08-19T13:53:07;14.20;;;7.20;;
68509;SDS011;55512;50.102;19.958;2022-08-19T13:55:38;13.20;;;7.10;;
68509;SDS011;55512;50.102;19.958;2022-08-19T13:58:06;10.60;;;7.00;;
68509;SDS011;55512;50.102;19.958;2022-08-19T14:00:35;9.20;;;6.70;;
68509;SDS011;55512;50.102;19.958;2022-08-19T14:09:19;12.20;;;7.20;;
68509;SDS011;55512;50.102;19.958;2022-08-19T14:11:44;10.00;;;6.80;;
68509;SDS011;55512;50.102;19.958;2022-08-19T14:14:11;9.80;;;7.10;;
68509;SDS011;55512;50.102;19.958;2022-08-19T14:16:37;12.30;;;7.10;;
68509;SDS011;55512;50.102;19.958;2022-08-19T14:19:03;12.20;;;7.80;;
68509;SDS011;55512;50.102;19.958;2022-08-19T14:21:29;11.00;;;7.90;;
68509;SDS011;55512;50.102;19.958;2022-08-19T14:23:54;10.30;;;7.30;;
68509;SDS011;55512;50.102;19.958;2022-08-19T14:26:21;10.90;;;7.30;;
68509;SDS011;55512;50.102;19.958;2022-08-19T14:28:47;9.70;;;6.60;;
68509;SDS011;55512;50.102;19.958;2022-08-19T14:31:16;9.70;;;7.00;;
68509;SDS011;55512;50.102;19.958;2022-08-19T14:33:45;12.50;;;7.10;;
68509;SDS011;55512;50.102;19.958;2022-08-19T14:36:11;9.90;;;6.60;;
68509;SDS011;55512;50.102;19.958;2022-08-19T14:38:37;9.40;;;6.80;;
68509;SDS011;55512;50.102;19.958;2022-08-19T14:43:35;9.40;;;6.90;;
68509;SDS011;55512;50.102;19.958;2022-08-19T14:46:01;9.40;;;7.00;;
68509;SDS011;55512;50.102;19.958;2022-08-19T14:48:27;8.80;;;6.90;;
68509;SDS011;55512;50.102;19.958;2022-08-19T14:50:53;10.40;;;6.80;;